Time;durP1;ratioP1;P1;durP2;ratioP2;P2;SDS_P1;SDS_P2;PMS_P1;PMS_P2;Temp;Humidity;BMP_temperature;BMP_pressure;BME280_temperature;BME280_humidity;BME280_pressure;Samples;Min_cycle;Max_cycle;Signal;HPM_P1;HPM_P2
2022/06/06 00:02:19;;;;;;;172.05;65.35;;;;;;;;;;7393100;19;20094;-43
2022/06/06 00:04:48;;;;;;;147.48;62.00;;;;;;;;;;7392381;19;20017;-43
2022/06/06 00:07:16;;;;;;;150.20;65.65;;;;;;;;;;7393320;19;20015;-43
2022/06/06 00:09:45;;;;;;;154.13;65.97;;;;;;;;;;7392450;19;20018;-44
2022/06/06 00:12:14;;;;;;;159.02;69.00;;;;;;;;;;7394758;19;20014;-43
2022/06/06 00:14:43;;;;;;;179.45;73.45;;;;;;;;;;7393889;19;20071;-43
2022/06/06 00:17:14;;;;;;;175.02;75.85;;;;;;;;;;7396970;19;20046;-43
2022/06/06 00:19:43;;;;;;;154.32;68.00;;;;;;;;;;7391840;19;20427;-43
2022/06/06 00:22:11;;;;;;;138.77;66.50;;;;;;;;;;7394537;19;20016;-43
2022/06/06 00:24:40;;;;;;;140.90;63.72;;;;;;;;;;7396085;19;20420;-43
2022/06/06 00:27:08;;;;;;;121.72;55.78;;;;;;;;;;7396814;19;20018;-43
2022/06/06 00:29:37;;;;;;;114.88;53.20;;;;;;;;;;7395234;19;20023;-44
2022/06/06 00:34:52;;;;;;;119.35;52.58;;;;;;;;;;7392133;19;20106;-43
2022/06/06 00:37:25;;;;;;;102.68;49.38;;;;;;;;;;7391311;19;20039;-42
2022/06/06 00:39:54;;;;;;;118.30;54.10;;;;;;;;;;7399525;19;20073;-43
2022/06/06 00:42:25;;;;;;;93.35;45.15;;;;;;;;;;7400755;19;20018;-42
2022/06/06 00:45:09;;;;;;;91.15;44.90;;;;;;;;;;7399521;19;20019;-42
2022/06/06 00:47:40;;;;;;;90.80;43.83;;;;;;;;;;7399386;19;20021;-43
2022/06/06 00:50:17;;;;;;;87.82;41.92;;;;;;;;;;7402236;19;20020;-42
2022/06/06 00:52:46;;;;;;;92.45;42.72;;;;;;;;;;7399348;19;20018;-42
2022/06/06 00:55:18;;;;;;;79.22;37.17;;;;;;;;;;7395905;19;20029;-42
2022/06/06 00:57:49;;;;;;;68.97;32.97;;;;;;;;;;7398907;19;20022;-42
2022/06/06 01:00:19;;;;;;;72.78;33.17;;;;;;;;;;7398514;19;20490;-42
2022/06/06 01:02:49;;;;;;;73.97;34.75;;;;;;;;;;7398649;19;20025;-42
2022/06/06 01:05:22;;;;;;;68.40;33.42;;;;;;;;;;7399489;19;20014;-42
2022/06/06 01:07:50;;;;;;;74.47;33.60;;;;;;;;;;7397279;19;20021;-42
2022/06/06 01:10:19;;;;;;;78.43;34.25;;;;;;;;;;7395718;19;20015;-42
2022/06/06 01:12:49;;;;;;;71.13;32.72;;;;;;;;;;7398355;19;20018;-42
2022/06/06 01:15:18;;;;;;;70.00;32.00;;;;;;;;;;7397738;19;20015;-42
2022/06/06 01:17:50;;;;;;;74.28;33.17;;;;;;;;;;7397299;19;20018;-42
2022/06/06 01:20:31;;;;;;;74.22;33.58;;;;;;;;;;7398493;19;20551;-42
2022/06/06 01:23:19;;;;;;;72.82;32.83;;;;;;;;;;7402966;19;20077;-42
2022/06/06 01:26:01;;;;;;;71.43;33.13;;;;;;;;;;7398298;19;20014;-42
2022/06/06 01:28:39;;;;;;;67.40;30.93;;;;;;;;;;7396803;19;20479;-51
2022/06/06 01:31:09;;;;;;;72.38;31.75;;;;;;;;;;7399235;19;20437;-42
2022/06/06 01:33:50;;;;;;;70.32;32.17;;;;;;;;;;7398735;19;20018;-42
2022/06/06 01:36:18;;;;;;;75.40;32.72;;;;;;;;;;7396672;19;20685;-42
2022/06/06 01:38:48;;;;;;;68.28;31.20;;;;;;;;;;7400096;19;20502;-42
2022/06/06 01:41:18;;;;;;;66.90;30.63;;;;;;;;;;7397666;19;20021;-41
2022/06/06 01:43:53;;;;;;;63.83;29.48;;;;;;;;;;7397832;19;20014;-42
2022/06/06 01:46:25;;;;;;;71.80;30.08;;;;;;;;;;7396550;19;20078;-41
2022/06/06 01:48:54;;;;;;;63.75;28.90;;;;;;;;;;7394263;19;20018;-41
2022/06/06 01:51:25;;;;;;;67.03;30.25;;;;;;;;;;7396809;19;20015;-41
2022/06/06 01:53:54;;;;;;;72.00;31.60;;;;;;;;;;7400267;19;20386;-41
2022/06/06 01:56:24;;;;;;;66.70;30.67;;;;;;;;;;7396984;19;20027;-41
2022/06/06 01:58:55;;;;;;;65.63;30.27;;;;;;;;;;7395823;19;20061;-41
2022/06/06 02:01:24;;;;;;;63.13;28.38;;;;;;;;;;7397954;19;20039;-41
2022/06/06 02:03:53;;;;;;;69.38;30.73;;;;;;;;;;7397300;19;20011;-41
2022/06/06 02:06:21;;;;;;;67.40;30.55;;;;;;;;;;7398282;19;20011;-41
2022/06/06 02:08:50;;;;;;;69.25;30.83;;;;;;;;;;7395189;19;20144;-42
2022/06/06 02:11:19;;;;;;;65.63;29.75;;;;;;;;;;7397185;19;20015;-41
2022/06/06 02:13:47;;;;;;;60.13;28.30;;;;;;;;;;7397331;19;20617;-44
2022/06/06 02:16:19;;;;;;;67.40;30.08;;;;;;;;;;7396281;19;20054;-42
2022/06/06 02:18:47;;;;;;;54.47;27.52;;;;;;;;;;7399095;19;20011;-41
2022/06/06 02:21:16;;;;;;;59.50;28.30;;;;;;;;;;7397399;19;20018;-43
2022/06/06 02:23:46;;;;;;;61.88;29.60;;;;;;;;;;7397614;19;20360;-41
2022/06/06 02:26:17;;;;;;;64.32;30.48;;;;;;;;;;7397575;19;20066;-41
2022/06/06 02:28:45;;;;;;;67.32;30.90;;;;;;;;;;7402906;19;20074;-41
2022/06/06 02:31:14;;;;;;;67.45;31.85;;;;;;;;;;7407085;19;20050;-41
2022/06/06 02:33:45;;;;;;;76.68;32.28;;;;;;;;;;7405531;19;20372;-41
2022/06/06 02:36:13;;;;;;;74.22;33.13;;;;;;;;;;7406863;19;20073;-42
2022/06/06 02:38:42;;;;;;;84.10;35.67;;;;;;;;;;7404118;19;20018;-41
2022/06/06 02:41:10;;;;;;;84.30;36.70;;;;;;;;;;7404112;19;20009;-42
2022/06/06 02:43:39;;;;;;;85.70;38.42;;;;;;;;;;7398612;19;20025;-44
2022/06/06 02:46:08;;;;;;;92.57;40.28;;;;;;;;;;7397759;19;20355;-41
2022/06/06 02:48:36;;;;;;;91.32;39.85;;;;;;;;;;7399150;19;20025;-44
2022/06/06 02:51:08;;;;;;;88.63;39.97;;;;;;;;;;7395901;19;20021;-45
2022/06/06 02:53:37;;;;;;;94.53;39.30;;;;;;;;;;7396167;19;20022;-43
2022/06/06 02:56:05;;;;;;;92.68;39.28;;;;;;;;;;7395069;19;20011;-42
2022/06/06 02:58:34;;;;;;;87.55;38.85;;;;;;;;;;7395252;19;20010;-43
2022/06/06 03:01:04;;;;;;;79.07;36.97;;;;;;;;;;7394517;19;20019;-41
2022/06/06 03:03:33;;;;;;;79.78;37.03;;;;;;;;;;7396901;19;20032;-41
2022/06/06 03:06:12;;;;;;;80.07;37.33;;;;;;;;;;7394726;19;20011;-41
2022/06/06 03:08:51;;;;;;;81.32;36.58;;;;;;;;;;7395399;19;20023;-41
2022/06/06 03:11:32;;;;;;;92.10;37.70;;;;;;;;;;7396616;19;20010;-42
2022/06/06 03:14:11;;;;;;;93.43;39.55;;;;;;;;;;7397481;19;20074;-41
2022/06/06 03:22:21;;;;;;;90.63;39.42;;;;;;;;;;7405148;19;20031;-41
2022/06/06 03:25:01;;;;;;;85.05;38.08;;;;;;;;;;7398471;19;20078;-44
2022/06/06 03:27:37;;;;;;;86.07;38.15;;;;;;;;;;7395487;19;20024;-41
2022/06/06 03:30:08;;;;;;;91.32;39.15;;;;;;;;;;7398410;19;20018;-41
2022/06/06 03:32:44;;;;;;;86.50;39.03;;;;;;;;;;7400781;19;20051;-41
2022/06/06 03:35:16;;;;;;;87.95;39.70;;;;;;;;;;7401512;19;20021;-41
2022/06/06 03:37:49;;;;;;;89.87;38.23;;;;;;;;;;7401351;19;20022;-42
2022/06/06 03:40:24;;;;;;;90.03;37.53;;;;;;;;;;7394784;19;20279;-43
2022/06/06 03:42:57;;;;;;;99.78;40.67;;;;;;;;;;7394397;19;20511;-41
2022/06/06 03:45:28;;;;;;;92.03;39.00;;;;;;;;;;7393771;19;20011;-41
2022/06/06 03:48:03;;;;;;;94.85;39.50;;;;;;;;;;7395306;19;20025;-42
2022/06/06 03:50:37;;;;;;;98.32;39.25;;;;;;;;;;7402181;19;20372;-42
2022/06/06 03:53:10;;;;;;;92.03;37.63;;;;;;;;;;7408149;19;20035;-43
2022/06/06 03:55:48;;;;;;;77.47;34.92;;;;;;;;;;7403138;19;20018;-42
2022/06/06 03:58:18;;;;;;;76.70;33.50;;;;;;;;;;7403011;19;20035;-48
2022/06/06 04:00:48;;;;;;;74.53;33.47;;;;;;;;;;7394060;19;20418;-46
2022/06/06 04:03:17;;;;;;;70.00;32.33;;;;;;;;;;7393937;19;20665;-43
2022/06/06 04:05:46;;;;;;;72.15;32.28;;;;;;;;;;7401714;19;20518;-41
2022/06/06 04:08:14;;;;;;;76.35;32.58;;;;;;;;;;7403113;19;20044;-42
2022/06/06 04:10:51;;;;;;;78.03;33.33;;;;;;;;;;7408691;19;20021;-41
2022/06/06 04:13:27;;;;;;;78.47;33.20;;;;;;;;;;7409580;19;20043;-42
2022/06/06 04:16:00;;;;;;;74.43;33.20;;;;;;;;;;7411246;19;20033;-42
2022/06/06 04:18:34;;;;;;;78.13;33.45;;;;;;;;;;7400557;19;20019;-41
2022/06/06 04:21:07;;;;;;;74.53;32.13;;;;;;;;;;7401635;19;20014;-41
2022/06/06 04:23:42;;;;;;;74.03;36.70;;;;;;;;;;7403388;19;20041;-41
2022/06/06 04:26:19;;;;;;;73.55;36.63;;;;;;;;;;7400622;19;20396;-41
2022/06/06 04:28:56;;;;;;;82.47;38.00;;;;;;;;;;7400180;19;20019;-41
2022/06/06 04:31:30;;;;;;;90.47;40.97;;;;;;;;;;7399000;19;20011;-41
2022/06/06 04:34:03;;;;;;;93.35;42.92;;;;;;;;;;7400921;19;20014;-41
2022/06/06 04:36:35;;;;;;;93.45;46.50;;;;;;;;;;7401457;19;20066;-41
2022/06/06 04:39:06;;;;;;;107.78;47.42;;;;;;;;;;7398784;19;20417;-42
2022/06/06 04:41:39;;;;;;;98.05;49.08;;;;;;;;;;7399955;19;20011;-41
2022/06/06 04:44:07;;;;;;;;;;;;;;;;;;7399734;19;20404;-42
2022/06/06 04:46:40;;;;;;;96.90;48.25;;;;;;;;;;7399025;19;19926;-41
2022/06/06 04:49:10;;;;;;;97.15;46.92;;;;;;;;;;7397317;19;20032;-41
2022/06/06 04:51:39;;;;;;;101.00;48.53;;;;;;;;;;7402516;19;20017;-42
2022/06/06 04:54:08;;;;;;;84.28;45.00;;;;;;;;;;7407716;19;20055;-42
2022/06/06 04:56:39;;;;;;;76.20;41.17;;;;;;;;;;7403968;19;20014;-41
2022/06/06 04:59:10;;;;;;;78.97;43.33;;;;;;;;;;7402798;19;20029;-42
2022/06/06 05:01:39;;;;;;;71.93;40.15;;;;;;;;;;7403547;19;20482;-41
2022/06/06 05:04:07;;;;;;;75.38;40.67;;;;;;;;;;7404162;19;20015;-42
2022/06/06 05:06:43;;;;;;;68.90;40.65;;;;;;;;;;7404179;19;20018;-41
2022/06/06 05:09:27;;;;;;;69.05;40.10;;;;;;;;;;7403046;19;20040;-41
2022/06/06 05:12:04;;;;;;;65.15;40.13;;;;;;;;;;7402803;19;20468;-41
2022/06/06 05:14:41;;;;;;;67.15;40.08;;;;;;;;;;7397751;19;20352;-47
2022/06/06 05:17:24;;;;;;;69.28;39.53;;;;;;;;;;7397284;19;20360;-43
2022/06/06 05:20:00;;;;;;;66.38;38.75;;;;;;;;;;7397436;19;20030;-42
2022/06/06 05:22:43;;;;;;;68.20;39.10;;;;;;;;;;7397672;19;20018;-41
2022/06/06 05:25:17;;;;;;;62.42;38.20;;;;;;;;;;7396264;19;20021;-42
2022/06/06 05:27:56;;;;;;;58.42;38.88;;;;;;;;;;7398159;19;20025;-42
2022/06/06 05:30:31;;;;;;;67.25;39.38;;;;;;;;;;7395524;19;20010;-41
2022/06/06 05:33:03;;;;;;;61.90;39.08;;;;;;;;;;7397985;19;20025;-41
2022/06/06 05:35:41;;;;;;;52.25;34.50;;;;;;;;;;7397325;19;20010;-41
2022/06/06 05:38:16;;;;;;;55.47;36.60;;;;;;;;;;7395881;19;20021;-41
2022/06/06 05:40:47;;;;;;;58.33;36.25;;;;;;;;;;7397442;19;20086;-41
2022/06/06 05:43:23;;;;;;;54.95;34.58;;;;;;;;;;7401002;19;20090;-41
2022/06/06 05:45:56;;;;;;;46.65;32.00;;;;;;;;;;7396801;19;20037;-42
2022/06/06 05:48:29;;;;;;;43.50;29.63;;;;;;;;;;7395605;19;20037;-43
2022/06/06 05:51:05;;;;;;;47.05;31.08;;;;;;;;;;7397055;19;20014;-42
2022/06/06 05:53:49;;;;;;;46.33;30.27;;;;;;;;;;7396470;19;20022;-42
2022/06/06 05:56:32;;;;;;;41.83;27.17;;;;;;;;;;7395240;19;20049;-43
2022/06/06 05:59:10;;;;;;;37.75;25.73;;;;;;;;;;7397628;19;20081;-43
2022/06/06 06:01:47;;;;;;;37.80;24.48;;;;;;;;;;7396884;19;20011;-43
2022/06/06 06:04:27;;;;;;;34.47;24.00;;;;;;;;;;7396867;19;20034;-42
2022/06/06 06:07:00;;;;;;;35.88;24.35;;;;;;;;;;7396145;19;20241;-43
2022/06/06 06:09:47;;;;;;;30.17;21.58;;;;;;;;;;7394729;19;20018;-43
2022/06/06 06:12:27;;;;;;;31.13;20.98;;;;;;;;;;7396526;19;20014;-43
2022/06/06 06:15:02;;;;;;;26.77;19.17;;;;;;;;;;7397750;19;20006;-42
2022/06/06 06:17:33;;;;;;;29.92;19.60;;;;;;;;;;7395861;19;20014;-43
2022/06/06 06:20:04;;;;;;;29.40;18.67;;;;;;;;;;7396581;19;20018;-45
2022/06/06 06:22:38;;;;;;;23.23;17.90;;;;;;;;;;7396674;19;20393;-42
2022/06/06 06:25:08;;;;;;;25.73;18.25;;;;;;;;;;7395948;19;20015;-41
2022/06/06 06:27:39;;;;;;;29.35;19.58;;;;;;;;;;7396465;19;20017;-42
2022/06/06 06:30:11;;;;;;;28.40;20.08;;;;;;;;;;7395932;19;20043;-43
2022/06/06 06:32:48;;;;;;;22.23;16.75;;;;;;;;;;7395996;19;20018;-43
2022/06/06 06:35:19;;;;;;;25.83;18.90;;;;;;;;;;7392357;19;20015;-43
2022/06/06 06:37:59;;;;;;;25.42;18.15;;;;;;;;;;7395116;19;20403;-42
2022/06/06 06:40:32;;;;;;;22.42;17.75;;;;;;;;;;7398949;19;20372;-42
2022/06/06 06:43:10;;;;;;;24.52;18.40;;;;;;;;;;7394818;19;20022;-42
2022/06/06 06:45:44;;;;;;;28.23;19.40;;;;;;;;;;7394500;19;20015;-45
2022/06/06 06:48:13;;;;;;;28.50;20.13;;;;;;;;;;7397755;19;20017;-42
2022/06/06 06:50:47;;;;;;;26.33;19.73;;;;;;;;;;7394152;19;20026;-42
2022/06/06 06:53:27;;;;;;;26.17;17.38;;;;;;;;;;7394710;19;20017;-42
2022/06/06 06:56:00;;;;;;;22.65;17.05;;;;;;;;;;7398913;19;20036;-47
2022/06/06 06:58:46;;;;;;;21.10;16.05;;;;;;;;;;7393982;19;20033;-43
2022/06/06 07:01:21;;;;;;;19.23;14.73;;;;;;;;;;7395589;19;20042;-43
2022/06/06 07:09:30;;;;;;;22.13;15.03;;;;;;;;;;7390820;19;20011;-43
2022/06/06 07:12:07;;;;;;;20.02;15.20;;;;;;;;;;7393351;19;20036;-44
2022/06/06 07:14:43;;;;;;;19.83;14.82;;;;;;;;;;7394830;19;20017;-43
2022/06/06 07:17:15;;;;;;;19.20;15.43;;;;;;;;;;7393429;19;20053;-43
2022/06/06 07:19:47;;;;;;;21.37;15.13;;;;;;;;;;7394071;19;20019;-43
2022/06/06 07:22:17;;;;;;;21.88;16.60;;;;;;;;;;7394432;19;20082;-43
2022/06/06 07:24:46;;;;;;;25.13;17.85;;;;;;;;;;7394409;19;20019;-43
2022/06/06 07:27:14;;;;;;;20.80;17.10;;;;;;;;;;7394068;19;20014;-46
2022/06/06 07:29:42;;;;;;;21.80;17.60;;;;;;;;;;7392246;19;20025;-45
2022/06/06 07:32:30;;;;;;;20.67;16.55;;;;;;;;;;7392557;19;20486;-43
2022/06/06 07:35:02;;;;;;;16.38;14.68;;;;;;;;;;7393806;19;20062;-42
2022/06/06 07:37:34;;;;;;;15.40;13.07;;;;;;;;;;7394060;19;20034;-43
2022/06/06 07:40:08;;;;;;;15.18;13.18;;;;;;;;;;7394069;19;20502;-43
2022/06/06 07:42:43;;;;;;;14.65;11.88;;;;;;;;;;7394602;19;20034;-46
2022/06/06 07:45:17;;;;;;;15.85;12.30;;;;;;;;;;7393779;19;20017;-43
2022/06/06 07:48:05;;;;;;;15.15;11.95;;;;;;;;;;7393154;19;20042;-42
2022/06/06 07:50:35;;;;;;;13.32;10.27;;;;;;;;;;7397201;19;20011;-42
2022/06/06 07:53:07;;;;;;;11.57;9.55;;;;;;;;;;7405091;19;20019;-42
2022/06/06 07:55:38;;;;;;;11.68;8.27;;;;;;;;;;7399992;19;20055;-41
2022/06/06 07:58:12;;;;;;;12.15;8.55;;;;;;;;;;7400487;19;20053;-42
2022/06/06 08:00:40;;;;;;;11.70;8.15;;;;;;;;;;7399522;19;20354;-41
2022/06/06 08:03:17;;;;;;;9.48;7.53;;;;;;;;;;7399401;19;20014;-42
2022/06/06 08:06:08;;;;;;;8.20;6.13;;;;;;;;;;7399226;19;20076;-41
2022/06/06 08:08:44;;;;;;;8.38;5.93;;;;;;;;;;7397049;19;20015;-41
2022/06/06 08:11:16;;;;;;;6.45;4.95;;;;;;;;;;7393644;19;20025;-43
2022/06/06 08:13:49;;;;;;;6.38;4.35;;;;;;;;;;7394774;19;20014;-40
2022/06/06 08:16:23;;;;;;;5.22;3.33;;;;;;;;;;7393290;19;20018;-41
2022/06/06 08:19:06;;;;;;;8.98;3.53;;;;;;;;;;7391837;19;20010;-42
2022/06/06 08:21:40;;;;;;;4.82;3.00;;;;;;;;;;7393175;19;20089;-42
2022/06/06 08:24:10;;;;;;;5.38;3.30;;;;;;;;;;7393974;19;20010;-41
2022/06/06 08:26:41;;;;;;;4.97;3.13;;;;;;;;;;7392653;19;20014;-41
2022/06/06 08:29:11;;;;;;;8.02;3.40;;;;;;;;;;7391720;19;20234;-43
2022/06/06 08:31:39;;;;;;;7.93;3.60;;;;;;;;;;7391697;19;20106;-41
2022/06/06 08:34:08;;;;;;;6.07;3.95;;;;;;;;;;7392799;19;20018;-40
2022/06/06 08:36:51;;;;;;;7.57;4.93;;;;;;;;;;7391448;19;20033;-41
2022/06/06 08:39:25;;;;;;;8.52;5.18;;;;;;;;;;7390542;19;20107;-41
2022/06/06 08:42:00;;;;;;;7.70;5.40;;;;;;;;;;7396353;19;20014;-41
2022/06/06 08:44:30;;;;;;;7.45;5.30;;;;;;;;;;7392025;19;20017;-41
2022/06/06 08:47:08;;;;;;;7.18;4.80;;;;;;;;;;7391886;19;20018;-41
2022/06/06 08:52:46;;;;;;;7.63;5.63;;;;;;;;;;7390553;19;20022;-42
2022/06/06 08:55:42;;;;;;;9.90;5.82;;;;;;;;;;7392405;19;20024;-41
2022/06/06 08:58:19;;;;;;;5.38;4.60;;;;;;;;;;7390827;19;20025;-41
2022/06/06 09:00:50;;;;;;;5.75;3.70;;;;;;;;;;7399331;19;20011;-41
2022/06/06 09:03:35;;;;;;;7.18;3.10;;;;;;;;;;7399580;19;20022;-41
2022/06/06 09:06:18;;;;;;;5.50;3.70;;;;;;;;;;7398735;19;20011;-41
2022/06/06 09:09:05;;;;;;;3.30;2.90;;;;;;;;;;7398684;19;20082;-42
2022/06/06 09:11:47;;;;;;;4.93;3.50;;;;;;;;;;7398597;19;20021;-42
2022/06/06 09:14:37;;;;;;;5.50;3.50;;;;;;;;;;7402101;19;20035;-42
2022/06/06 09:17:21;;;;;;;4.35;3.08;;;;;;;;;;7398756;19;20507;-41
2022/06/06 09:20:07;;;;;;;6.07;3.30;;;;;;;;;;7398921;19;20045;-41
2022/06/06 09:22:45;;;;;;;4.10;3.00;;;;;;;;;;7398735;19;20025;-41
2022/06/06 09:25:24;;;;;;;5.18;2.67;;;;;;;;;;7398077;19;20090;-41
2022/06/06 09:28:09;;;;;;;4.43;2.38;;;;;;;;;;7396604;19;20121;-41
2022/06/06 09:30:47;;;;;;;4.32;2.22;;;;;;;;;;7401070;19;20021;-41
2022/06/06 09:33:28;;;;;;;5.75;2.33;;;;;;;;;;7397949;19;20015;-41
2022/06/06 09:36:05;;;;;;;4.65;2.40;;;;;;;;;;7397108;19;20049;-41
2022/06/06 09:38:47;;;;;;;5.18;2.60;;;;;;;;;;7396839;19;20019;-41
2022/06/06 09:41:35;;;;;;;4.18;2.70;;;;;;;;;;7399338;19;20015;-41
2022/06/06 09:44:07;;;;;;;8.52;2.83;;;;;;;;;;7401608;19;20078;-42
2022/06/06 09:46:50;;;;;;;4.70;3.13;;;;;;;;;;7405756;19;20026;-41
2022/06/06 09:49:37;;;;;;;5.38;3.55;;;;;;;;;;7404532;19;20018;-42
2022/06/06 09:52:20;;;;;;;7.55;4.05;;;;;;;;;;7404525;19;20025;-42
2022/06/06 10:01:04;;;;;;;6.25;4.18;;;;;;;;;;7402053;19;20010;-42
2022/06/06 10:03:48;;;;;;;7.25;4.20;;;;;;;;;;7406209;19;20069;-41
2022/06/06 10:06:30;;;;;;;6.75;4.40;;;;;;;;;;7400662;19;20014;-42
2022/06/06 10:09:14;;;;;;;7.50;4.40;;;;;;;;;;7396254;19;20018;-42
2022/06/06 10:12:02;;;;;;;5.38;4.03;;;;;;;;;;7398419;19;20035;-41
2022/06/06 10:14:41;;;;;;;7.47;4.10;;;;;;;;;;7399838;19;20094;-42
2022/06/06 10:17:19;;;;;;;5.50;4.30;;;;;;;;;;7398478;19;20022;-41
2022/06/06 10:19:57;;;;;;;4.60;3.92;;;;;;;;;;7401403;19;20547;-44
2022/06/06 10:22:37;;;;;;;6.28;4.22;;;;;;;;;;7398372;19;20113;-42
2022/06/06 10:25:21;;;;;;;6.00;3.78;;;;;;;;;;7398085;19;20070;-41
2022/06/06 10:27:58;;;;;;;5.70;4.15;;;;;;;;;;7397328;19;20015;-41
2022/06/06 10:30:29;;;;;;;5.53;3.95;;;;;;;;;;7397515;19;20157;-42
2022/06/06 10:33:15;;;;;;;5.38;4.00;;;;;;;;;;7396622;19;20010;-42
2022/06/06 10:35:56;;;;;;;4.65;3.58;;;;;;;;;;7398327;19;20048;-42
2022/06/06 10:38:37;;;;;;;5.72;4.25;;;;;;;;;;7395014;19;20411;-42
2022/06/06 10:41:08;;;;;;;5.85;4.60;;;;;;;;;;7396023;19;20451;-44
2022/06/06 10:43:41;;;;;;;6.22;3.88;;;;;;;;;;7400040;19;20089;-44
2022/06/06 10:46:10;;;;;;;;;;;;;;;;;;7396330;19;20050;-44
2022/06/06 10:48:47;;;;;;;5.03;4.03;;;;;;;;;;7396243;19;19921;-44
2022/06/06 10:51:40;;;;;;;6.22;4.50;;;;;;;;;;7395674;19;20025;-43
2022/06/06 10:54:11;;;;;;;;;;;;;;;;;;7396669;19;20006;-44
2022/06/06 10:56:57;;;;;;;6.90;4.30;;;;;;;;;;7395006;19;19923;-44
2022/06/06 10:59:43;;;;;;;7.07;4.50;;;;;;;;;;7395323;19;20078;-44
2022/06/06 11:02:26;;;;;;;6.32;4.60;;;;;;;;;;7396839;19;20025;-44
2022/06/06 11:05:04;;;;;;;6.93;4.60;;;;;;;;;;7396927;19;20039;-44
2022/06/06 11:07:53;;;;;;;6.13;5.05;;;;;;;;;;7395912;19;20483;-44
2022/06/06 11:10:39;;;;;;;8.77;5.80;;;;;;;;;;7393850;19;20506;-46
2022/06/06 11:13:20;;;;;;;7.68;6.88;;;;;;;;;;7394518;19;20014;-45
2022/06/06 11:15:55;;;;;;;9.20;6.60;;;;;;;;;;7394192;19;20010;-44
2022/06/06 11:18:39;;;;;;;7.95;7.15;;;;;;;;;;7395780;19;20029;-44
2022/06/06 11:21:31;;;;;;;7.78;6.97;;;;;;;;;;7391986;19;20043;-44
2022/06/06 11:24:09;;;;;;;7.72;6.47;;;;;;;;;;7395806;19;20029;-44
2022/06/06 11:26:53;;;;;;;6.40;5.80;;;;;;;;;;7394524;19;20898;-44
2022/06/06 11:29:34;;;;;;;7.30;5.85;;;;;;;;;;7394613;19;20039;-45
2022/06/06 11:32:15;;;;;;;6.88;5.20;;;;;;;;;;7394172;19;20018;-43
2022/06/06 11:34:54;;;;;;;5.88;5.30;;;;;;;;;;7395286;19;20382;-44
2022/06/06 11:37:41;;;;;;;6.68;4.75;;;;;;;;;;7393975;19;20018;-43
2022/06/06 11:40:36;;;;;;;5.90;4.68;;;;;;;;;;7394878;19;20013;-43
2022/06/06 11:43:20;;;;;;;4.35;3.95;;;;;;;;;;7394467;19;20015;-45
2022/06/06 11:46:02;;;;;;;3.90;3.50;;;;;;;;;;7394067;19;20025;-47
2022/06/06 11:48:42;;;;;;;4.93;3.33;;;;;;;;;;7394996;19;20011;-42
2022/06/06 11:51:22;;;;;;;6.80;3.30;;;;;;;;;;7393014;19;20290;-45
2022/06/06 11:54:05;;;;;;;4.38;3.10;;;;;;;;;;7390892;19;20023;-45
2022/06/06 11:56:44;;;;;;;5.25;3.28;;;;;;;;;;7394091;19;20078;-46
2022/06/06 11:59:27;;;;;;;4.25;3.00;;;;;;;;;;7393337;19;20018;-45
2022/06/06 12:02:14;;;;;;;4.35;2.67;;;;;;;;;;7394022;19;20015;-46
2022/06/06 12:04:57;;;;;;;5.05;3.28;;;;;;;;;;7393845;19;20032;-45
2022/06/06 12:07:40;;;;;;;3.53;2.85;;;;;;;;;;7393796;19;20017;-45
2022/06/06 12:10:12;;;;;;;5.45;3.30;;;;;;;;;;7391460;19;20539;-45
2022/06/06 12:12:54;;;;;;;5.78;3.25;;;;;;;;;;7393093;19;20019;-45
2022/06/06 12:15:34;;;;;;;5.72;3.45;;;;;;;;;;7392420;19;20502;-45
2022/06/06 12:18:20;;;;;;;5.20;3.22;;;;;;;;;;7394337;19;20017;-45
2022/06/06 12:20:59;;;;;;;3.15;2.85;;;;;;;;;;7392167;19;20013;-45
2022/06/06 12:23:37;;;;;;;3.95;3.20;;;;;;;;;;7395291;19;20082;-45
2022/06/06 12:26:15;;;;;;;5.53;3.28;;;;;;;;;;7392105;19;20018;-44
2022/06/06 12:28:52;;;;;;;6.22;3.55;;;;;;;;;;7392606;19;20021;-45
2022/06/06 12:31:28;;;;;;;4.43;3.75;;;;;;;;;;7391230;19;20018;-48
2022/06/06 12:34:01;;;;;;;4.95;3.17;;;;;;;;;;7396368;19;20177;-50
2022/06/06 12:36:32;;;;;;;6.90;4.03;;;;;;;;;;7400504;19;20048;-44
2022/06/06 12:39:06;;;;;;;5.45;4.60;;;;;;;;;;7405684;19;20007;-45
2022/06/06 12:41:43;;;;;;;7.25;3.85;;;;;;;;;;7395613;19;20014;-45
2022/06/06 12:44:20;;;;;;;6.85;4.68;;;;;;;;;;7400959;19;20018;-45
2022/06/06 12:47:03;;;;;;;5.85;4.75;;;;;;;;;;7400596;19;20084;-45
2022/06/06 12:49:49;;;;;;;6.75;5.00;;;;;;;;;;7398185;19;20010;-45
2022/06/06 12:52:39;;;;;;;5.65;4.20;;;;;;;;;;7400024;19;20010;-45
2022/06/06 12:58:02;;;;;;;5.75;4.43;;;;;;;;;;7400236;19;20010;-44
2022/06/06 13:03:19;;;;;;;6.15;4.05;;;;;;;;;;7400415;19;20018;-45
2022/06/06 13:05:53;;;;;;;5.78;3.90;;;;;;;;;;7399254;19;20093;-48
2022/06/06 13:08:39;;;;;;;5.00;4.13;;;;;;;;;;7399613;19;20073;-48
2022/06/06 13:11:23;;;;;;;5.47;4.28;;;;;;;;;;7402194;19;20471;-45
2022/06/06 13:14:00;;;;;;;5.72;4.30;;;;;;;;;;7397130;19;20018;-43
2022/06/06 13:16:36;;;;;;;4.75;4.03;;;;;;;;;;7398687;19;20015;-43
2022/06/06 13:19:10;;;;;;;5.50;4.03;;;;;;;;;;7399938;19;20401;-44
2022/06/06 13:21:44;;;;;;;6.57;4.55;;;;;;;;;;7399550;19;20141;-43
2022/06/06 13:24:33;;;;;;;4.80;3.22;;;;;;;;;;7399614;19;20026;-46
2022/06/06 13:27:17;;;;;;;4.25;2.95;;;;;;;;;;7400649;19;20010;-44
2022/06/06 13:29:49;;;;;;;5.35;3.10;;;;;;;;;;7398515;19;20043;-45
2022/06/06 13:32:24;;;;;;;5.32;2.75;;;;;;;;;;7399897;19;20074;-43
2022/06/06 13:34:57;;;;;;;7.30;2.80;;;;;;;;;;7398210;19;20069;-47
2022/06/06 13:37:25;;;;;;;;;;;;;;;;;;7399505;19;20029;-46
2022/06/06 13:40:05;;;;;;;6.10;2.95;;;;;;;;;;7396747;19;19945;-44
2022/06/06 13:42:39;;;;;;;4.85;2.50;;;;;;;;;;7400524;19;20018;-43
2022/06/06 13:45:18;;;;;;;4.80;2.95;;;;;;;;;;7396253;19;20015;-43
2022/06/06 13:47:54;;;;;;;3.17;2.60;;;;;;;;;;7398419;19;20021;-47
2022/06/06 13:50:25;;;;;;;5.72;2.40;;;;;;;;;;7397858;19;20415;-44
2022/06/06 13:53:02;;;;;;;5.18;2.30;;;;;;;;;;7398349;19;20011;-46
2022/06/06 13:55:32;;;;;;;3.65;2.28;;;;;;;;;;7397512;19;20472;-44
2022/06/06 13:58:28;;;;;;;3.92;2.50;;;;;;;;;;7397663;19;20014;-45
2022/06/06 14:01:06;;;;;;;5.40;2.83;;;;;;;;;;7392951;19;20029;-45
2022/06/06 14:03:52;;;;;;;6.55;2.60;;;;;;;;;;7395710;19;20022;-45
2022/06/06 14:06:31;;;;;;;3.25;2.50;;;;;;;;;;7396168;19;20455;-45
2022/06/06 14:09:00;;;;;;;4.88;3.20;;;;;;;;;;7397399;19;20029;-45
2022/06/06 14:11:47;;;;;;;4.38;2.55;;;;;;;;;;7394693;19;20019;-46
2022/06/06 14:14:16;;;;;;;4.55;2.90;;;;;;;;;;7398037;19;20017;-45
2022/06/06 14:16:49;;;;;;;3.60;2.90;;;;;;;;;;7397436;19;20018;-46
2022/06/06 14:19:19;;;;;;;7.22;3.63;;;;;;;;;;7398281;19;20025;-45
2022/06/06 14:21:52;;;;;;;9.32;5.72;;;;;;;;;;7397955;19;20019;-46
2022/06/06 14:24:22;;;;;;;15.02;8.90;;;;;;;;;;7394879;19;20014;-46
2022/06/06 14:26:55;;;;;;;17.92;12.18;;;;;;;;;;7394814;19;20026;-47
2022/06/06 14:29:29;;;;;;;13.40;11.77;;;;;;;;;;7395544;19;20021;-49
2022/06/06 14:32:02;;;;;;;13.70;12.07;;;;;;;;;;7399115;19;20026;-46
2022/06/06 14:34:36;;;;;;;16.13;14.50;;;;;;;;;;7395755;19;20021;-46
2022/06/06 14:37:17;;;;;;;16.10;12.50;;;;;;;;;;7394864;19;20099;-46
2022/06/06 14:39:47;;;;;;;15.13;13.05;;;;;;;;;;7394787;19;20018;-46
2022/06/06 14:42:17;;;;;;;15.80;13.50;;;;;;;;;;7395087;19;20111;-46
2022/06/06 14:44:47;;;;;;;15.82;13.85;;;;;;;;;;7392679;19;20082;-46
2022/06/06 14:47:21;;;;;;;12.00;9.55;;;;;;;;;;7395504;19;20026;-48
2022/06/06 14:50:45;;;;;;;10.90;9.20;;;;;;;;;;7394127;19;20082;-45
2022/06/06 14:52:41;;;;;;;14.20;10.85;;;;;;;;;;7394614;19;20404;-49
2022/06/06 14:55:10;;;;;;;12.73;10.27;;;;;;;;;;7394914;19;20073;-46
2022/06/06 14:57:39;;;;;;;11.07;9.55;;;;;;;;;;7392574;19;20336;-47
2022/06/06 15:00:15;;;;;;;11.30;9.27;;;;;;;;;;7393839;19;20015;-47
2022/06/06 15:03:01;;;;;;;12.25;10.55;;;;;;;;;;7394443;19;20014;-47
2022/06/06 15:05:30;;;;;;;9.50;7.85;;;;;;;;;;7399240;19;20024;-46
2022/06/06 15:08:00;;;;;;;9.88;8.80;;;;;;;;;;7395538;19;20015;-45
2022/06/06 15:10:30;;;;;;;15.50;9.68;;;;;;;;;;7392762;19;20011;-45
2022/06/06 15:12:59;;;;;;;12.32;9.70;;;;;;;;;;7395377;19;20010;-47
2022/06/06 15:15:29;;;;;;;11.63;9.90;;;;;;;;;;7393275;19;20021;-49
2022/06/06 15:18:01;;;;;;;14.57;12.60;;;;;;;;;;7393927;19;20022;-44
2022/06/06 15:20:31;;;;;;;12.38;11.02;;;;;;;;;;7394901;19;20543;-46
2022/06/06 15:23:01;;;;;;;11.43;10.27;;;;;;;;;;7393304;19;20014;-47
2022/06/06 15:25:34;;;;;;;11.13;9.93;;;;;;;;;;7393246;19;20046;-46
2022/06/06 15:28:10;;;;;;;13.27;10.80;;;;;;;;;;7393227;19;20032;-48
2022/06/06 15:30:42;;;;;;;14.10;11.65;;;;;;;;;;7393136;19;20018;-51
2022/06/06 15:33:17;;;;;;;14.57;13.07;;;;;;;;;;7394620;19;20035;-47
2022/06/06 15:35:52;;;;;;;22.13;16.98;;;;;;;;;;7391890;19;20014;-47
2022/06/06 15:38:27;;;;;;;21.67;17.55;;;;;;;;;;7396101;19;20069;-47
2022/06/06 15:41:00;;;;;;;26.35;20.52;;;;;;;;;;7391538;19;20471;-48
2022/06/06 15:43:37;;;;;;;26.58;21.35;;;;;;;;;;7392314;19;20106;-52
2022/06/06 15:46:08;;;;;;;36.90;25.70;;;;;;;;;;7392242;19;20521;-51